KFXE

Fort Lauderdale Executive Airport

Fort Lauderdale, Florida, USA
METAR KFXE 162353Z 07005KT 10SM FEW036 SCT044 22/17 A3019 RMK AO2 SLP226 T02220172 10256 20222 53013
Observed Flight Rules
Dec-16 @ 23:53 UTC (33 minutes ago) Visual Flight Rules
Wind Visibility Clouds
70° at 5 knots 10 miles
  • Few at 3,600' AGL
  • Scattered at 4,400' AGL
Temperatures Readings
Current 22°C / 72°F
Dewpoint 17°C / 63°F
Humidity 73%
Altimeter 30.19" Hg
Pressure 1022.6 hPa
Elevation 6
METAR KFXE 162353Z 07005KT 10SM FEW036 SCT044 22/17 A3019 RMK AO2 SLP226 T02220172 10256 20222 53013
Observed Flight Rules
Dec-16 @ 23:53 UTC
(33 minutes ago)
VFR
Wind Visibility
70° at 5 knots 10 miles
Clouds
  • Few at 3,600' AGL
  • Scattered at 4,400' AGL
Temperature Dewpoint
22°C / 72°F 17°C / 63°F
Humidity Altimeter Pressure
73% 30.19" Hg 1022.6 hPa